Huvudsida
METAR-TAF:

METAR-TAF

Flygplatser :

Al-Jubayl, Saudiarabien

latitud: 27-02-20N, longitud: 49-24-18E, höjd: 8 m

Aktuellt väderrapport

Denna rapport gjordes för 41 minuter sedan, klockan 14:00 UTC
Vind 18 kt från sydost
Temperatur 43°C
Fuktighet 8%
Tryck 1002 hPa
Sikt: 2000 m
högt damm drev

METAR: OEJB 091400Z 14018KT 2000 BLDU NCD 43/02 Q1002 NOSIG

Tid: 17:41 (14:41 UTC)


TAF: saknas

Aktuella väderrapporter och prognoser från 4000 flygplatser (METAR- och TAF-rapporter).

De tillgängliga stationerna syns som gula och röda prickar på kartan.

För musen över prickarna för att se namnen på stationerna.

Klicka sedan för att få väderrapporter och prognoser.

För att ändra kartan: Klicka på de gröna knapparna med ett svart kors på för att zooma in; den gröna knappen med ett streck på för att zooma ut; eller på de gröna pilarna för angränsande kartor.


METAR-TAF: